createdAt,value
2023-06-17T00:00:40.629Z,56.92
2023-06-17T00:03:14.045Z,55.52
2023-06-17T00:05:46.808Z,57.97
2023-06-17T00:08:19.085Z,56.18
2023-06-17T00:10:51.441Z,53.81
2023-06-17T00:13:26.766Z,50.27
2023-06-17T00:16:00.524Z,53.16
2023-06-17T00:18:34.017Z,52.00
2023-06-17T00:21:06.182Z,52.72
2023-06-17T00:23:38.430Z,51.90
2023-06-17T00:26:11.081Z,51.77
2023-06-17T00:28:45.904Z,51.58
2023-06-17T00:31:18.204Z,46.50
2023-06-17T00:33:50.419Z,49.91
2023-06-17T00:36:22.845Z,48.89
2023-06-17T00:38:55.168Z,48.02
2023-06-17T00:41:27.611Z,47.68
2023-06-17T00:44:02.542Z,46.83
2023-06-17T00:46:41.958Z,49.79
2023-06-17T00:49:15.037Z,52.55
2023-06-17T00:52:00.129Z,53.32
2023-06-17T00:54:37.784Z,53.15
2023-06-17T00:57:14.829Z,52.53
2023-06-17T00:59:50.498Z,50.19
2023-06-17T01:02:27.227Z,50.27
2023-06-17T01:04:59.849Z,54.57
2023-06-17T01:07:41.594Z,52.29
2023-06-17T01:10:26.078Z,58.89
2023-06-17T01:13:01.644Z,64.17
2023-06-17T01:15:38.376Z,57.22
2023-06-17T01:18:11.226Z,58.02
2023-06-17T01:20:45.007Z,53.06
2023-06-17T01:23:19.334Z,53.89
2023-06-17T01:25:59.278Z,56.52
2023-06-17T01:28:31.509Z,52.29
2023-06-17T01:31:04.017Z,57.60
2023-06-17T01:33:37.426Z,56.43
2023-06-17T01:36:19.039Z,54.91
2023-06-17T01:38:55.611Z,57.81
2023-06-17T01:41:44.213Z,58.14
2023-06-17T01:44:19.848Z,56.82
2023-06-17T01:46:52.229Z,57.69
2023-06-17T01:49:24.510Z,59.01
2023-06-17T01:51:56.791Z,58.98
2023-06-17T01:54:29.168Z,62.73
2023-06-17T01:57:04.736Z,61.43
2023-06-17T01:59:37.318Z,61.24
2023-06-17T02:02:10.057Z,62.11
2023-06-17T02:04:42.602Z,63.52
2023-06-17T02:07:14.916Z,62.85
2023-06-17T02:09:47.363Z,59.42
2023-06-17T02:12:22.280Z,59.59
2023-06-17T02:14:54.502Z,60.53
2023-06-17T02:17:29.100Z,61.66
2023-06-17T02:20:01.509Z,61.55
2023-06-17T02:22:33.812Z,60.58
2023-06-17T02:25:06.625Z,59.20
2023-06-17T02:27:41.736Z,64.81
2023-06-17T02:30:16.682Z,62.49
2023-06-17T02:32:49.042Z,60.38
2023-06-17T02:35:21.619Z,63.37
2023-06-17T02:37:56.936Z,64.05
2023-06-17T02:40:29.152Z,63.95
2023-06-17T02:43:03.980Z,60.26
2023-06-17T02:45:36.229Z,61.62
2023-06-17T02:48:08.754Z,61.92
2023-06-17T02:50:41.661Z,64.53
2023-06-17T02:53:13.842Z,63.72
2023-06-17T02:55:48.055Z,63.61
2023-06-17T02:58:22.930Z,67.22
2023-06-17T03:00:55.614Z,67.76
2023-06-17T03:03:35.537Z,64.71
2023-06-17T03:06:10.628Z,66.30
2023-06-17T03:08:44.962Z,64.75
2023-06-17T03:11:17.220Z,64.90
2023-06-17T03:13:52.033Z,61.71
2023-06-17T03:16:24.529Z,63.07
2023-06-17T03:18:56.768Z,62.44
2023-06-17T03:21:30.819Z,64.19
2023-06-17T03:24:04.103Z,66.40
2023-06-17T03:26:36.520Z,68.81
2023-06-17T03:29:11.703Z,69.35
2023-06-17T03:31:43.924Z,66.88
2023-06-17T03:34:16.388Z,68.69
2023-06-17T03:36:48.878Z,70.13
2023-06-17T03:39:21.203Z,67.66
2023-06-17T03:41:53.498Z,69.62
2023-06-17T03:44:28.332Z,64.66
2023-06-17T03:47:02.139Z,68.14
2023-06-17T03:49:34.415Z,68.79
2023-06-17T03:52:06.700Z,69.45
2023-06-17T03:54:40.593Z,76.46
2023-06-17T03:57:12.982Z,79.11
2023-06-17T03:59:47.746Z,80.50
2023-06-17T04:02:20.093Z,76.09
2023-06-17T04:04:53.942Z,80.49
2023-06-17T04:07:26.453Z,80.06
2023-06-17T04:10:07.278Z,80.97
2023-06-17T04:12:50.983Z,83.85
2023-06-17T04:15:25.871Z,84.81
2023-06-17T04:17:58.479Z,83.59
2023-06-17T04:20:31.225Z,82.06
2023-06-17T04:23:03.463Z,86.15
2023-06-17T04:25:38.390Z,85.70
2023-06-17T04:28:14.368Z,81.50
2023-06-17T04:30:49.571Z,88.93
2023-06-17T04:33:21.918Z,86.65
2023-06-17T04:35:55.157Z,83.45
2023-06-17T04:38:27.470Z,78.73
2023-06-17T04:40:59.726Z,79.86
2023-06-17T04:43:34.309Z,84.10
2023-06-17T04:46:09.964Z,85.82
2023-06-17T04:48:43.621Z,83.57
2023-06-17T04:51:19.078Z,79.12
2023-06-17T04:53:51.961Z,80.66
2023-06-17T04:56:28.232Z,84.90
2023-06-17T04:59:00.698Z,86.21
2023-06-17T05:01:35.554Z,89.11
2023-06-17T05:04:08.957Z,89.57
2023-06-17T05:06:41.347Z,89.99
2023-06-17T05:09:13.685Z,86.02
2023-06-17T05:11:46.395Z,89.94
2023-06-17T05:14:18.688Z,84.80
2023-06-17T05:16:53.619Z,83.60
2023-06-17T05:19:25.970Z,86.13
2023-06-17T05:21:58.218Z,88.44
2023-06-17T05:24:30.835Z,87.51
2023-06-17T05:27:03.192Z,83.21
2023-06-17T05:29:38.305Z,83.52
2023-06-17T05:32:14.716Z,85.02
2023-06-17T05:34:47.022Z,79.94
2023-06-17T05:37:19.441Z,82.54
2023-06-17T05:39:51.691Z,83.29
2023-06-17T05:42:23.982Z,79.41
2023-06-17T05:44:56.490Z,81.64
2023-06-17T05:47:31.477Z,80.55
2023-06-17T05:50:03.727Z,84.94
2023-06-17T05:52:35.969Z,76.83
2023-06-17T05:55:08.629Z,76.69
2023-06-17T05:57:41.060Z,73.56
2023-06-17T06:00:14.969Z,71.20
2023-06-17T06:02:49.817Z,66.09
2023-06-17T06:05:22.307Z,60.70
2023-06-17T06:07:54.541Z,59.79
2023-06-17T06:10:28.791Z,59.31
2023-06-17T06:13:01.013Z,58.37
2023-06-17T06:15:33.820Z,57.32
2023-06-17T06:18:09.007Z,55.76
2023-06-17T06:20:41.378Z,53.83
2023-06-17T06:23:13.583Z,51.83
2023-06-17T06:25:45.942Z,50.39
2023-06-17T06:28:18.186Z,49.34
2023-06-17T06:30:50.692Z,49.90
2023-06-17T06:33:25.888Z,49.69
2023-06-17T06:35:58.292Z,48.96
2023-06-17T06:38:30.449Z,50.31
2023-06-17T06:41:02.676Z,46.80
2023-06-17T06:43:35.192Z,47.85
2023-06-17T06:46:08.607Z,46.09
2023-06-17T06:48:43.452Z,46.61
2023-06-17T06:51:15.743Z,45.66
2023-06-17T06:53:48.282Z,47.21
2023-06-17T06:56:20.587Z,43.30
2023-06-17T06:58:52.829Z,44.55
2023-06-17T07:01:25.056Z,43.76
2023-06-17T07:03:59.874Z,45.06
2023-06-17T07:06:32.172Z,46.22
2023-06-17T07:09:07.643Z,43.21
2023-06-17T07:11:39.950Z,44.76
2023-06-17T07:14:12.312Z,45.45
2023-06-17T07:16:44.707Z,44.75
2023-06-17T07:19:19.626Z,42.78
2023-06-17T07:21:52.709Z,41.94
2023-06-17T07:24:25.026Z,41.09
2023-06-17T07:26:57.443Z,44.08
2023-06-17T07:29:29.716Z,41.59
2023-06-17T07:32:02.018Z,38.86
2023-06-17T07:34:36.789Z,38.96
2023-06-17T07:37:09.650Z,40.15
2023-06-17T07:39:41.782Z,39.26
2023-06-17T07:42:14.033Z,41.94
2023-06-17T07:44:46.167Z,42.23
2023-06-17T07:47:18.416Z,38.86
2023-06-17T07:49:53.242Z,39.95
2023-06-17T07:52:25.484Z,38.49
2023-06-17T07:54:57.999Z,39.71
2023-06-17T07:57:30.229Z,38.14
2023-06-17T08:00:02.641Z,38.78
2023-06-17T08:02:34.912Z,39.99
2023-06-17T08:05:10.770Z,39.51
2023-06-17T08:07:43.231Z,37.17
2023-06-17T08:10:15.475Z,35.30
2023-06-17T08:12:48.361Z,38.71
2023-06-17T08:15:21.007Z,36.66
2023-06-17T08:17:54.304Z,37.26
2023-06-17T08:20:29.847Z,36.16
2023-06-17T08:23:02.330Z,38.82
2023-06-17T08:25:34.898Z,36.21
2023-06-17T08:28:07.529Z,35.67
2023-06-17T08:30:39.765Z,37.67
2023-06-17T08:33:12.066Z,36.38
2023-06-17T08:35:46.996Z,34.79
2023-06-17T08:38:19.352Z,38.46
2023-06-17T08:40:51.702Z,38.79
2023-06-17T08:43:27.031Z,38.99
2023-06-17T08:46:02.533Z,39.24
2023-06-17T08:48:36.669Z,41.74
2023-06-17T08:51:13.745Z,40.76
2023-06-17T08:53:48.992Z,41.54
2023-06-17T08:56:21.383Z,42.11
2023-06-17T08:58:55.714Z,39.42
2023-06-17T09:01:29.462Z,39.31
2023-06-17T09:04:03.094Z,40.75
2023-06-17T09:06:38.019Z,41.49
2023-06-17T09:09:10.387Z,47.83
2023-06-17T09:11:45.646Z,43.16
2023-06-17T09:14:17.950Z,41.36
2023-06-17T09:16:50.792Z,43.53
2023-06-17T09:19:23.183Z,41.56
2023-06-17T09:21:59.772Z,41.99
2023-06-17T09:24:34.690Z,41.01
2023-06-17T09:27:07.743Z,44.94
2023-06-17T09:29:39.987Z,40.57
2023-06-17T09:32:12.398Z,39.94
2023-06-17T09:34:53.264Z,41.23
2023-06-17T09:37:28.258Z,43.06
2023-06-17T09:40:07.170Z,40.95
2023-06-17T09:42:39.644Z,39.99
2023-06-17T09:45:14.362Z,43.64
2023-06-17T09:47:46.827Z,41.84
2023-06-17T09:50:19.516Z,41.77
2023-06-17T09:52:55.884Z,41.21
2023-06-17T09:55:28.747Z,42.71
2023-06-17T09:58:03.053Z,41.09
2023-06-17T10:00:36.691Z,41.76
2023-06-17T10:03:08.981Z,40.33
2023-06-17T10:05:41.675Z,41.86
2023-06-17T10:08:17.310Z,42.26
2023-06-17T10:10:50.572Z,40.34
2023-06-17T10:13:26.731Z,41.22
2023-06-17T10:16:02.862Z,41.50
2023-06-17T10:18:38.761Z,42.64
2023-06-17T10:21:15.392Z,41.82
2023-06-17T10:23:51.911Z,42.46
2023-06-17T10:26:25.368Z,41.96
2023-06-17T10:29:08.219Z,41.55
2023-06-17T10:31:44.231Z,40.70
2023-06-17T10:34:21.537Z,40.24
2023-06-17T10:36:55.252Z,41.36
2023-06-17T10:39:30.643Z,40.94
2023-06-17T10:42:06.162Z,39.53
2023-06-17T10:44:48.854Z,39.26
2023-06-17T10:47:27.169Z,39.47
2023-06-17T10:50:01.927Z,41.94
2023-06-17T10:52:34.786Z,41.46
2023-06-17T10:55:10.183Z,41.41
2023-06-17T10:57:42.538Z,41.26
2023-06-17T11:00:15.688Z,40.23
2023-06-17T11:02:48.870Z,37.86
2023-06-17T11:05:21.491Z,40.29
2023-06-17T11:07:54.004Z,42.02
2023-06-17T11:10:32.595Z,38.62
2023-06-17T11:13:05.960Z,39.25
2023-06-17T11:15:38.129Z,42.32
2023-06-17T11:18:10.514Z,37.56
2023-06-17T11:20:42.864Z,41.32
2023-06-17T11:23:16.331Z,41.04
2023-06-17T11:25:54.684Z,38.99
2023-06-17T11:28:27.066Z,40.51
2023-06-17T11:31:01.008Z,39.61
2023-06-17T11:33:36.192Z,39.76
2023-06-17T11:36:15.227Z,39.89
2023-06-17T11:38:50.130Z,41.05
2023-06-17T11:41:25.261Z,39.35
2023-06-17T11:43:59.643Z,40.25
2023-06-17T11:46:32.068Z,38.81
2023-06-17T11:49:04.389Z,40.25
2023-06-17T11:51:36.612Z,39.39
2023-06-17T11:54:10.572Z,41.26
2023-06-17T11:56:45.899Z,41.54
2023-06-17T11:59:19.109Z,38.96
2023-06-17T12:01:53.218Z,38.17
2023-06-17T12:04:25.772Z,40.51
2023-06-17T12:06:58.308Z,37.64
2023-06-17T12:09:31.140Z,39.69
2023-06-17T12:12:05.976Z,40.14
2023-06-17T12:14:42.813Z,39.49
2023-06-17T12:17:23.461Z,38.52
2023-06-17T12:19:55.774Z,38.64
2023-06-17T12:22:28.071Z,40.92
2023-06-17T12:25:00.283Z,40.84
2023-06-17T12:27:36.128Z,39.46
2023-06-17T12:30:09.522Z,39.26
2023-06-17T12:32:44.579Z,41.64
2023-06-17T12:35:17.857Z,40.01
2023-06-17T12:37:55.884Z,39.00
2023-06-17T12:40:29.266Z,39.45
2023-06-17T12:43:04.153Z,42.84
2023-06-17T12:45:36.500Z,41.87
2023-06-17T12:48:09.092Z,40.12
2023-06-17T12:50:42.136Z,40.86
2023-06-17T12:53:14.603Z,39.66
2023-06-17T12:55:46.929Z,41.39
2023-06-17T12:58:21.828Z,39.86
2023-06-17T13:00:54.144Z,40.85
2023-06-17T13:03:26.779Z,40.49
2023-06-17T13:05:59.630Z,40.56
2023-06-17T13:08:31.931Z,42.06
2023-06-17T13:11:04.814Z,42.56
2023-06-17T13:13:39.635Z,39.47
2023-06-17T13:16:12.487Z,40.08
2023-06-17T13:18:44.699Z,40.81
2023-06-17T13:21:16.995Z,39.01
2023-06-17T13:23:49.628Z,39.47
2023-06-17T13:26:23.625Z,38.21
2023-06-17T13:28:58.459Z,38.06
2023-06-17T13:31:30.914Z,40.23
2023-06-17T13:34:03.306Z,39.31
2023-06-17T13:36:36.970Z,38.62
2023-06-17T13:39:09.920Z,39.57
2023-06-17T13:41:42.346Z,39.19
2023-06-17T13:44:17.897Z,38.31
2023-06-17T13:46:50.477Z,36.84
2023-06-17T13:49:23.185Z,38.85
2023-06-17T13:51:55.543Z,39.76
2023-06-17T13:54:28.413Z,38.24
2023-06-17T13:57:00.906Z,38.17
2023-06-17T13:59:36.257Z,38.07
2023-06-17T14:02:08.806Z,36.54
2023-06-17T14:04:41.311Z,39.28
2023-06-17T14:07:13.638Z,38.02
2023-06-17T14:09:46.131Z,38.96
2023-06-17T14:12:18.347Z,36.01
2023-06-17T14:14:53.703Z,36.69
2023-06-17T14:17:28.347Z,38.21
2023-06-17T14:20:00.869Z,36.79
2023-06-17T14:22:33.074Z,35.84
2023-06-17T14:25:05.326Z,36.76
2023-06-17T14:27:44.739Z,36.21
2023-06-17T14:30:20.524Z,37.59
2023-06-17T14:32:53.676Z,35.56
2023-06-17T14:35:26.168Z,36.53
2023-06-17T14:37:58.350Z,36.51
2023-06-17T14:40:30.564Z,37.69
2023-06-17T14:43:03.763Z,38.08
2023-06-17T14:45:38.757Z,36.64
2023-06-17T14:48:11.207Z,38.47
2023-06-17T14:50:43.591Z,37.71
2023-06-17T14:53:15.736Z,38.73
2023-06-17T14:56:06.628Z,37.45
2023-06-17T14:58:38.862Z,38.56
2023-06-17T15:01:13.671Z,38.22
2023-06-17T15:03:45.984Z,38.14
2023-06-17T15:06:18.363Z,38.22
2023-06-17T15:08:50.626Z,42.15
2023-06-17T15:11:22.871Z,38.17
2023-06-17T15:13:55.102Z,37.66
2023-06-17T15:16:30.119Z,37.14
2023-06-17T15:19:02.302Z,37.19
2023-06-17T15:21:34.556Z,36.40
2023-06-17T15:24:07.875Z,35.70
2023-06-17T15:26:40.416Z,33.04
2023-06-17T15:29:12.623Z,34.21
2023-06-17T15:31:48.129Z,34.24
2023-06-17T15:34:20.346Z,33.46
2023-06-17T15:36:55.074Z,33.11
2023-06-17T15:39:29.326Z,33.84
2023-06-17T15:42:01.617Z,31.49
2023-06-17T15:44:34.133Z,33.95
2023-06-17T15:47:09.734Z,34.30
2023-06-17T15:49:42.233Z,35.44
2023-06-17T15:52:14.429Z,35.84
2023-06-17T15:54:46.857Z,37.41
2023-06-17T15:57:20.206Z,35.89
2023-06-17T15:59:52.473Z,39.69
2023-06-17T16:02:27.304Z,36.69
2023-06-17T16:04:59.559Z,37.16
2023-06-17T16:07:33.143Z,38.44
2023-06-17T16:10:05.492Z,40.44
2023-06-17T16:12:38.776Z,41.87
2023-06-17T16:15:11.954Z,40.25
2023-06-17T16:17:46.862Z,42.78
2023-06-17T16:20:19.226Z,42.91
2023-06-17T16:22:51.550Z,41.52
2023-06-17T16:25:23.762Z,41.23
2023-06-17T16:27:56.173Z,41.92
2023-06-17T16:30:28.537Z,45.89
2023-06-17T16:33:03.344Z,45.70
2023-06-17T16:35:35.903Z,42.79
2023-06-17T16:38:08.137Z,39.93
2023-06-17T16:40:40.406Z,43.84
2023-06-17T16:43:12.663Z,41.84
2023-06-17T16:45:45.151Z,41.41
2023-06-17T16:48:20.035Z,44.12
2023-06-17T16:50:52.236Z,60.14
2023-06-17T16:53:24.930Z,59.59
2023-06-17T16:55:57.154Z,43.19
2023-06-17T16:58:29.430Z,42.66
2023-06-17T17:01:01.852Z,46.08
2023-06-17T17:03:39.996Z,45.71
2023-06-17T17:06:12.856Z,41.41
2023-06-17T17:08:45.230Z,40.50
2023-06-17T17:11:17.462Z,39.66
2023-06-17T17:13:50.163Z,39.71
2023-06-17T17:16:23.409Z,39.87
2023-06-17T17:18:58.317Z,40.88
2023-06-17T17:21:30.652Z,39.91
2023-06-17T17:24:05.776Z,38.07
2023-06-17T17:26:38.681Z,41.34
2023-06-17T17:29:11.065Z,42.94
2023-06-17T17:31:43.477Z,41.95
2023-06-17T17:34:18.355Z,43.09
2023-06-17T17:36:50.746Z,44.01
2023-06-17T17:39:22.895Z,43.14
2023-06-17T17:41:55.310Z,43.86
2023-06-17T17:44:27.504Z,45.04
2023-06-17T17:47:06.884Z,45.11
2023-06-17T17:49:41.705Z,46.53
2023-06-17T17:52:13.945Z,46.04
2023-06-17T17:55:00.660Z,44.80
2023-06-17T17:57:33.854Z,46.51
2023-06-17T18:00:06.054Z,46.38
2023-06-17T18:02:38.307Z,44.19
2023-06-17T18:05:14.110Z,45.84
2023-06-17T18:07:48.894Z,46.86
2023-06-17T18:10:22.221Z,48.29
2023-06-17T18:12:54.649Z,48.89
2023-06-17T18:15:26.856Z,47.53
2023-06-17T18:17:59.144Z,48.82
2023-06-17T18:20:33.991Z,48.78
2023-06-17T18:23:06.369Z,48.13
2023-06-17T18:25:38.798Z,49.91
2023-06-17T18:28:11.097Z,51.06
2023-06-17T18:30:44.208Z,50.86
2023-06-17T18:33:16.607Z,51.80
2023-06-17T18:35:51.421Z,49.26
2023-06-17T18:38:23.727Z,50.01
2023-06-17T18:40:56.012Z,48.54
2023-06-17T18:43:28.230Z,49.48
2023-06-17T18:46:00.558Z,49.34
2023-06-17T18:48:33.263Z,48.81
2023-06-17T18:51:08.323Z,49.96
2023-06-17T18:53:41.037Z,49.47
2023-06-17T18:56:13.445Z,48.69
2023-06-17T18:58:45.920Z,49.07
2023-06-17T19:01:18.225Z,46.02
2023-06-17T19:03:50.836Z,49.19
2023-06-17T19:06:25.729Z,48.28
2023-06-17T19:08:57.991Z,50.86
2023-06-17T19:11:30.213Z,55.99
2023-06-17T19:14:09.868Z,53.97
2023-06-17T19:16:42.277Z,52.88
2023-06-17T19:19:14.605Z,50.84
2023-06-17T19:21:49.439Z,50.86
2023-06-17T19:24:22.156Z,50.74
2023-06-17T19:26:54.545Z,50.85
2023-06-17T19:29:26.751Z,50.01
2023-06-17T19:31:59.626Z,49.34
2023-06-17T19:34:31.814Z,49.06
2023-06-17T19:37:06.765Z,49.01
2023-06-17T19:39:39.017Z,49.15
2023-06-17T19:42:11.588Z,49.71
2023-06-17T19:44:44.363Z,49.04
2023-06-17T19:47:18.024Z,49.89
2023-06-17T19:49:50.185Z,50.54
2023-06-17T19:52:25.164Z,51.42
2023-06-17T19:54:58.229Z,51.34
2023-06-17T19:57:33.009Z,51.33
2023-06-17T20:00:05.322Z,52.58
2023-06-17T20:02:37.857Z,54.31
2023-06-17T20:05:12.604Z,54.31
2023-06-17T20:07:47.687Z,53.04
2023-06-17T20:10:20.247Z,58.71
2023-06-17T20:12:58.661Z,53.97
2023-06-17T20:15:31.081Z,55.15
2023-06-17T20:18:03.425Z,57.86
2023-06-17T20:20:35.774Z,56.52
2023-06-17T20:23:11.161Z,58.75
2023-06-17T20:25:43.649Z,57.29
2023-06-17T20:28:16.009Z,58.04
2023-06-17T20:30:48.343Z,60.59
2023-06-17T20:33:20.599Z,59.01
2023-06-17T20:35:55.061Z,60.34
2023-06-17T20:38:29.884Z,56.51
2023-06-17T20:41:02.705Z,58.31
2023-06-17T20:43:35.562Z,58.68
2023-06-17T20:46:10.856Z,58.33
2023-06-17T20:48:43.136Z,59.02
2023-06-17T20:51:15.326Z,58.24
2023-06-17T20:53:50.123Z,55.61
2023-06-17T20:56:23.210Z,57.26
2023-06-17T20:58:56.891Z,58.36
2023-06-17T21:01:29.172Z,60.01
2023-06-17T21:04:01.662Z,58.84
2023-06-17T21:06:35.057Z,58.82
2023-06-17T21:09:10.361Z,58.56
2023-06-17T21:11:42.687Z,61.23
2023-06-17T21:14:14.993Z,57.03
2023-06-17T21:16:47.507Z,56.86
2023-06-17T21:19:19.803Z,64.28
2023-06-17T21:21:51.996Z,69.21
2023-06-17T21:24:26.913Z,69.46
2023-06-17T21:26:59.353Z,68.59
2023-06-17T21:29:31.595Z,69.64
2023-06-17T21:32:03.813Z,64.98
2023-06-17T21:34:36.147Z,65.83
2023-06-17T21:37:09.009Z,66.01
2023-06-17T21:39:43.776Z,68.13
2023-06-17T21:42:16.047Z,65.75
2023-06-17T21:44:48.338Z,64.79
2023-06-17T21:47:21.144Z,67.74
2023-06-17T21:49:53.508Z,70.11
2023-06-17T21:52:25.816Z,69.09
2023-06-17T21:55:00.683Z,64.76
2023-06-17T21:57:33.224Z,67.84
2023-06-17T22:00:06.871Z,64.67
2023-06-17T22:02:39.185Z,68.09
2023-06-17T22:05:12.045Z,68.22
2023-06-17T22:07:44.528Z,68.54
2023-06-17T22:10:19.511Z,67.74
2023-06-17T22:12:51.952Z,68.80
2023-06-17T22:15:24.192Z,66.89
2023-06-17T22:17:57.207Z,68.41
2023-06-17T22:20:29.484Z,70.77
2023-06-17T22:23:01.690Z,71.16
2023-06-17T22:25:36.495Z,73.55
2023-06-17T22:28:08.927Z,72.86
2023-06-17T22:30:41.259Z,71.57
2023-06-17T22:33:13.478Z,68.09
2023-06-17T22:35:46.092Z,69.13
2023-06-17T22:38:18.300Z,71.79
2023-06-17T22:40:53.560Z,70.75
2023-06-17T22:43:25.797Z,69.45
2023-06-17T22:45:58.145Z,66.47
2023-06-17T22:48:30.349Z,66.85
2023-06-17T22:51:02.968Z,64.22
2023-06-17T22:53:35.621Z,63.18
2023-06-17T22:56:10.575Z,61.68
2023-06-17T22:58:42.777Z,60.61
2023-06-17T23:01:15.020Z,61.29
2023-06-17T23:03:47.319Z,59.00
2023-06-17T23:06:19.779Z,62.32
2023-06-17T23:08:52.040Z,61.85
2023-06-17T23:11:26.833Z,63.41
2023-06-17T23:13:59.094Z,63.69
2023-06-17T23:16:31.610Z,61.87
2023-06-17T23:19:03.901Z,63.03
2023-06-17T23:21:38.065Z,64.17
2023-06-17T23:24:10.517Z,63.14
2023-06-17T23:26:46.053Z,61.87
2023-06-17T23:29:18.680Z,63.71
2023-06-17T23:31:51.769Z,64.24
2023-06-17T23:34:24.430Z,64.69
2023-06-17T23:36:56.912Z,65.58
2023-06-17T23:39:29.210Z,63.03
2023-06-17T23:42:04.058Z,63.20
2023-06-17T23:44:36.274Z,67.79
2023-06-17T23:47:08.757Z,68.22
2023-06-17T23:49:42.101Z,68.44
2023-06-17T23:52:14.981Z,69.14
2023-06-17T23:54:47.213Z,72.69
2023-06-17T23:57:22.282Z,72.28
2023-06-17T23:59:54.464Z,72.66
